sensor_id;sensor_type;location;lat;lon;timestamp;temperature;humidity
23738;DHT22;12049;51.068;3.688;2022-09-29T00:00:16;12.10;99.90
23738;DHT22;12049;51.068;3.688;2022-09-29T00:02:42;12.10;99.90
23738;DHT22;12049;51.068;3.688;2022-09-29T00:05:08;12.10;99.90
23738;DHT22;12049;51.068;3.688;2022-09-29T00:07:33;12.10;99.90
23738;DHT22;12049;51.068;3.688;2022-09-29T00:09:59;12.00;99.90
23738;DHT22;12049;51.068;3.688;2022-09-29T00:12:24;12.00;99.90
23738;DHT22;12049;51.068;3.688;2022-09-29T00:14:50;11.90;99.90
23738;DHT22;12049;51.068;3.688;2022-09-29T00:17:15;11.90;99.90
23738;DHT22;12049;51.068;3.688;2022-09-29T00:19:44;11.90;99.90
23738;DHT22;12049;51.068;3.688;2022-09-29T00:22:09;11.80;99.90
23738;DHT22;12049;51.068;3.688;2022-09-29T00:24:35;11.80;99.90
23738;DHT22;12049;51.068;3.688;2022-09-29T00:27:00;11.70;99.90
23738;DHT22;12049;51.068;3.688;2022-09-29T00:29:26;11.70;99.90
23738;DHT22;12049;51.068;3.688;2022-09-29T00:31:52;11.70;99.90
23738;DHT22;12049;51.068;3.688;2022-09-29T00:34:17;11.70;99.90
23738;DHT22;12049;51.068;3.688;2022-09-29T00:36:43;11.70;99.90
23738;DHT22;12049;51.068;3.688;2022-09-29T00:39:09;11.70;99.90
23738;DHT22;12049;51.068;3.688;2022-09-29T00:41:35;11.70;99.90
23738;DHT22;12049;51.068;3.688;2022-09-29T00:44:02;11.70;99.90
23738;DHT22;12049;51.068;3.688;2022-09-29T00:49:08;11.70;99.90
23738;DHT22;12049;51.068;3.688;2022-09-29T00:51:36;11.70;99.90
23738;DHT22;12049;51.068;3.688;2022-09-29T00:54:03;11.70;99.90
23738;DHT22;12049;51.068;3.688;2022-09-29T00:56:29;11.70;99.90
23738;DHT22;12049;51.068;3.688;2022-09-29T00:58:55;11.70;99.90
23738;DHT22;12049;51.068;3.688;2022-09-29T01:01:24;11.70;99.90
23738;DHT22;12049;51.068;3.688;2022-09-29T01:03:52;11.70;99.90
23738;DHT22;12049;51.068;3.688;2022-09-29T01:06:20;11.70;99.90
23738;DHT22;12049;51.068;3.688;2022-09-29T01:08:54;11.70;99.90
23738;DHT22;12049;51.068;3.688;2022-09-29T01:11:22;11.70;99.90
23738;DHT22;12049;51.068;3.688;2022-09-29T01:13:47;11.70;99.90
23738;DHT22;12049;51.068;3.688;2022-09-29T01:16:13;11.70;99.90
23738;DHT22;12049;51.068;3.688;2022-09-29T01:18:39;11.70;99.90
23738;DHT22;12049;51.068;3.688;2022-09-29T01:21:22;11.70;99.90
23738;DHT22;12049;51.068;3.688;2022-09-29T01:24:41;11.70;99.90
23738;DHT22;12049;51.068;3.688;2022-09-29T01:26:50;11.70;99.90
23738;DHT22;12049;51.068;3.688;2022-09-29T01:29:28;11.70;99.90
23738;DHT22;12049;51.068;3.688;2022-09-29T01:34:32;11.70;99.90
23738;DHT22;12049;51.068;3.688;2022-09-29T01:37:07;11.70;99.90
23738;DHT22;12049;51.068;3.688;2022-09-29T01:39:36;11.70;99.90
23738;DHT22;12049;51.068;3.688;2022-09-29T01:47:07;11.60;99.90
23738;DHT22;12049;51.068;3.688;2022-09-29T01:49:35;11.60;99.90
23738;DHT22;12049;51.068;3.688;2022-09-29T01:52:08;11.60;99.90
23738;DHT22;12049;51.068;3.688;2022-09-29T01:54:48;11.60;99.90
23738;DHT22;12049;51.068;3.688;2022-09-29T01:57:31;11.60;99.90
23738;DHT22;12049;51.068;3.688;2022-09-29T02:02:26;11.60;99.90
23738;DHT22;12049;51.068;3.688;2022-09-29T02:04:56;11.60;99.90
23738;DHT22;12049;51.068;3.688;2022-09-29T02:07:25;11.60;99.90
23738;DHT22;12049;51.068;3.688;2022-09-29T02:09:55;11.60;99.90
23738;DHT22;12049;51.068;3.688;2022-09-29T02:12:23;11.50;99.90
23738;DHT22;12049;51.068;3.688;2022-09-29T02:14:49;11.50;99.90
23738;DHT22;12049;51.068;3.688;2022-09-29T02:17:17;11.50;99.90
23738;DHT22;12049;51.068;3.688;2022-09-29T02:19:44;11.50;99.90
23738;DHT22;12049;51.068;3.688;2022-09-29T02:22:10;11.50;99.90
23738;DHT22;12049;51.068;3.688;2022-09-29T02:24:35;11.50;99.90
23738;DHT22;12049;51.068;3.688;2022-09-29T02:27:01;11.50;99.90
23738;DHT22;12049;51.068;3.688;2022-09-29T02:29:27;11.40;99.90
23738;DHT22;12049;51.068;3.688;2022-09-29T02:31:53;11.40;99.90
23738;DHT22;12049;51.068;3.688;2022-09-29T02:34:19;11.40;99.90
23738;DHT22;12049;51.068;3.688;2022-09-29T02:42:12;11.30;99.90
23738;DHT22;12049;51.068;3.688;2022-09-29T02:52:09;11.20;99.90
23738;DHT22;12049;51.068;3.688;2022-09-29T02:57:16;11.20;99.90
23738;DHT22;12049;51.068;3.688;2022-09-29T02:59:45;11.20;99.90
23738;DHT22;12049;51.068;3.688;2022-09-29T03:02:15;11.10;99.90
23738;DHT22;12049;51.068;3.688;2022-09-29T03:04:47;11.10;99.90
23738;DHT22;12049;51.068;3.688;2022-09-29T03:07:12;11.10;99.90
23738;DHT22;12049;51.068;3.688;2022-09-29T03:09:38;11.00;99.90
23738;DHT22;12049;51.068;3.688;2022-09-29T03:12:03;11.00;99.90
23738;DHT22;12049;51.068;3.688;2022-09-29T03:14:29;11.00;99.90
23738;DHT22;12049;51.068;3.688;2022-09-29T03:16:54;11.00;99.90
23738;DHT22;12049;51.068;3.688;2022-09-29T03:19:20;11.00;99.90
23738;DHT22;12049;51.068;3.688;2022-09-29T03:21:45;11.00;99.90
23738;DHT22;12049;51.068;3.688;2022-09-29T03:24:11;10.90;99.90
23738;DHT22;12049;51.068;3.688;2022-09-29T03:26:36;10.90;99.90
23738;DHT22;12049;51.068;3.688;2022-09-29T03:29:02;10.90;99.90
23738;DHT22;12049;51.068;3.688;2022-09-29T03:31:27;10.90;99.90
23738;DHT22;12049;51.068;3.688;2022-09-29T03:33:53;10.90;99.90
23738;DHT22;12049;51.068;3.688;2022-09-29T03:36:18;10.90;99.90
23738;DHT22;12049;51.068;3.688;2022-09-29T03:38:44;10.90;99.90
23738;DHT22;12049;51.068;3.688;2022-09-29T03:41:11;10.90;99.90
23738;DHT22;12049;51.068;3.688;2022-09-29T03:43:36;10.90;99.90
23738;DHT22;12049;51.068;3.688;2022-09-29T03:46:02;10.90;99.90
23738;DHT22;12049;51.068;3.688;2022-09-29T03:48:29;10.90;99.90
23738;DHT22;12049;51.068;3.688;2022-09-29T03:50:55;10.90;99.90
23738;DHT22;12049;51.068;3.688;2022-09-29T03:53:21;10.90;99.90
23738;DHT22;12049;51.068;3.688;2022-09-29T03:55:47;10.90;99.90
23738;DHT22;12049;51.068;3.688;2022-09-29T03:58:13;11.00;99.90
23738;DHT22;12049;51.068;3.688;2022-09-29T04:00:39;11.00;99.90
23738;DHT22;12049;51.068;3.688;2022-09-29T04:03:04;11.00;99.90
23738;DHT22;12049;51.068;3.688;2022-09-29T04:05:31;11.00;99.90
23738;DHT22;12049;51.068;3.688;2022-09-29T04:07:56;11.10;99.90
23738;DHT22;12049;51.068;3.688;2022-09-29T04:10:22;11.10;99.90
23738;DHT22;12049;51.068;3.688;2022-09-29T04:12:47;11.10;99.90
23738;DHT22;12049;51.068;3.688;2022-09-29T04:15:13;11.10;99.90
23738;DHT22;12049;51.068;3.688;2022-09-29T04:17:38;11.10;99.90
23738;DHT22;12049;51.068;3.688;2022-09-29T04:20:04;11.10;99.90
23738;DHT22;12049;51.068;3.688;2022-09-29T04:22:30;11.10;99.90
23738;DHT22;12049;51.068;3.688;2022-09-29T04:24:55;11.10;99.90
23738;DHT22;12049;51.068;3.688;2022-09-29T04:27:21;11.10;99.90
23738;DHT22;12049;51.068;3.688;2022-09-29T04:29:46;11.10;99.90
23738;DHT22;12049;51.068;3.688;2022-09-29T04:32:12;11.10;99.90
23738;DHT22;12049;51.068;3.688;2022-09-29T04:34:38;11.10;99.90
23738;DHT22;12049;51.068;3.688;2022-09-29T04:37:03;11.00;99.90
23738;DHT22;12049;51.068;3.688;2022-09-29T04:39:29;11.00;99.90
23738;DHT22;12049;51.068;3.688;2022-09-29T04:41:54;11.00;99.90
23738;DHT22;12049;51.068;3.688;2022-09-29T04:44:20;11.00;99.90
23738;DHT22;12049;51.068;3.688;2022-09-29T04:46:50;11.00;99.90
23738;DHT22;12049;51.068;3.688;2022-09-29T04:49:16;11.00;99.90
23738;DHT22;12049;51.068;3.688;2022-09-29T04:51:42;11.00;99.90
23738;DHT22;12049;51.068;3.688;2022-09-29T04:54:08;11.00;99.90
23738;DHT22;12049;51.068;3.688;2022-09-29T04:56:33;11.00;99.90
23738;DHT22;12049;51.068;3.688;2022-09-29T04:58:59;11.00;99.90
23738;DHT22;12049;51.068;3.688;2022-09-29T05:01:25;11.00;99.90
23738;DHT22;12049;51.068;3.688;2022-09-29T05:03:50;11.00;99.90
23738;DHT22;12049;51.068;3.688;2022-09-29T05:06:16;11.00;99.90
23738;DHT22;12049;51.068;3.688;2022-09-29T05:08:41;10.90;99.90
23738;DHT22;12049;51.068;3.688;2022-09-29T05:11:07;10.90;99.90
23738;DHT22;12049;51.068;3.688;2022-09-29T05:13:33;10.90;99.90
23738;DHT22;12049;51.068;3.688;2022-09-29T05:15:59;10.80;99.90
23738;DHT22;12049;51.068;3.688;2022-09-29T05:18:25;10.90;99.90
23738;DHT22;12049;51.068;3.688;2022-09-29T05:20:51;10.80;99.90
23738;DHT22;12049;51.068;3.688;2022-09-29T05:23:16;10.80;99.90
23738;DHT22;12049;51.068;3.688;2022-09-29T05:25:42;10.80;99.90
23738;DHT22;12049;51.068;3.688;2022-09-29T05:28:08;10.80;99.90
23738;DHT22;12049;51.068;3.688;2022-09-29T05:30:35;10.80;99.90
23738;DHT22;12049;51.068;3.688;2022-09-29T05:33:00;10.80;99.90
23738;DHT22;12049;51.068;3.688;2022-09-29T05:35:26;10.80;99.90
23738;DHT22;12049;51.068;3.688;2022-09-29T05:37:51;10.80;99.90
23738;DHT22;12049;51.068;3.688;2022-09-29T05:40:17;10.90;99.90
23738;DHT22;12049;51.068;3.688;2022-09-29T05:42:43;10.90;99.90
23738;DHT22;12049;51.068;3.688;2022-09-29T05:45:09;10.90;99.90
23738;DHT22;12049;51.068;3.688;2022-09-29T05:47:39;10.80;99.90
23738;DHT22;12049;51.068;3.688;2022-09-29T05:50:05;10.90;99.90
23738;DHT22;12049;51.068;3.688;2022-09-29T05:52:31;10.90;99.90
23738;DHT22;12049;51.068;3.688;2022-09-29T05:54:56;10.90;99.90
23738;DHT22;12049;51.068;3.688;2022-09-29T05:57:22;10.90;99.90
23738;DHT22;12049;51.068;3.688;2022-09-29T05:59:47;10.90;99.90
23738;DHT22;12049;51.068;3.688;2022-09-29T06:02:13;11.00;99.90
23738;DHT22;12049;51.068;3.688;2022-09-29T06:04:38;11.00;99.90
23738;DHT22;12049;51.068;3.688;2022-09-29T06:07:04;11.00;99.90
23738;DHT22;12049;51.068;3.688;2022-09-29T06:09:29;11.00;99.90
23738;DHT22;12049;51.068;3.688;2022-09-29T06:11:57;11.10;99.90
23738;DHT22;12049;51.068;3.688;2022-09-29T06:14:22;11.10;99.90
23738;DHT22;12049;51.068;3.688;2022-09-29T06:16:48;11.10;99.90
23738;DHT22;12049;51.068;3.688;2022-09-29T06:19:14;11.10;99.90
23738;DHT22;12049;51.068;3.688;2022-09-29T06:21:39;11.20;99.90
23738;DHT22;12049;51.068;3.688;2022-09-29T06:24:05;11.20;99.90
23738;DHT22;12049;51.068;3.688;2022-09-29T06:26:31;11.20;99.90
23738;DHT22;12049;51.068;3.688;2022-09-29T06:28:57;11.30;99.90
23738;DHT22;12049;51.068;3.688;2022-09-29T06:31:23;11.30;99.90
23738;DHT22;12049;51.068;3.688;2022-09-29T06:33:49;11.40;99.90
23738;DHT22;12049;51.068;3.688;2022-09-29T06:36:19;11.50;99.90
23738;DHT22;12049;51.068;3.688;2022-09-29T06:39:04;11.60;99.90
23738;DHT22;12049;51.068;3.688;2022-09-29T06:41:29;11.80;99.90
23738;DHT22;12049;51.068;3.688;2022-09-29T06:43:55;11.80;99.90
23738;DHT22;12049;51.068;3.688;2022-09-29T06:46:20;11.80;99.90
23738;DHT22;12049;51.068;3.688;2022-09-29T06:48:46;11.90;99.90
23738;DHT22;12049;51.068;3.688;2022-09-29T06:51:12;12.00;99.90
23738;DHT22;12049;51.068;3.688;2022-09-29T06:53:39;12.00;99.90
23738;DHT22;12049;51.068;3.688;2022-09-29T06:56:05;12.10;99.90
23738;DHT22;12049;51.068;3.688;2022-09-29T06:58:30;12.10;99.90
23738;DHT22;12049;51.068;3.688;2022-09-29T07:00:59;12.20;99.90
23738;DHT22;12049;51.068;3.688;2022-09-29T07:05:53;13.00;99.90
23738;DHT22;12049;51.068;3.688;2022-09-29T07:08:22;13.40;99.90
23738;DHT22;12049;51.068;3.688;2022-09-29T07:10:50;13.70;99.90
23738;DHT22;12049;51.068;3.688;2022-09-29T07:13:16;14.30;99.90
23738;DHT22;12049;51.068;3.688;2022-09-29T07:15:41;14.70;99.90
23738;DHT22;12049;51.068;3.688;2022-09-29T07:18:07;14.90;99.90
23738;DHT22;12049;51.068;3.688;2022-09-29T07:20:34;15.40;99.90
23738;DHT22;12049;51.068;3.688;2022-09-29T07:22:59;16.80;99.90
23738;DHT22;12049;51.068;3.688;2022-09-29T07:25:25;18.60;99.90
23738;DHT22;12049;51.068;3.688;2022-09-29T07:27:50;20.30;99.90
23738;DHT22;12049;51.068;3.688;2022-09-29T07:30:17;21.40;99.90
23738;DHT22;12049;51.068;3.688;2022-09-29T07:32:43;22.20;99.90
23738;DHT22;12049;51.068;3.688;2022-09-29T07:35:08;23.10;99.90
23738;DHT22;12049;51.068;3.688;2022-09-29T07:37:34;24.10;99.90
23738;DHT22;12049;51.068;3.688;2022-09-29T07:39:59;24.60;99.90
23738;DHT22;12049;51.068;3.688;2022-09-29T07:42:26;25.00;99.90
23738;DHT22;12049;51.068;3.688;2022-09-29T07:44:52;25.10;99.90
23738;DHT22;12049;51.068;3.688;2022-09-29T07:47:18;24.90;99.90
23738;DHT22;12049;51.068;3.688;2022-09-29T07:49:43;24.70;99.90
23738;DHT22;12049;51.068;3.688;2022-09-29T07:52:09;24.40;99.90
23738;DHT22;12049;51.068;3.688;2022-09-29T07:54:34;24.40;99.90
23738;DHT22;12049;51.068;3.688;2022-09-29T07:57:00;24.90;99.90
23738;DHT22;12049;51.068;3.688;2022-09-29T07:59:28;25.50;99.90
23738;DHT22;12049;51.068;3.688;2022-09-29T08:01:53;26.30;99.90
23738;DHT22;12049;51.068;3.688;2022-09-29T08:04:19;27.00;99.90
23738;DHT22;12049;51.068;3.688;2022-09-29T08:06:45;27.70;99.90
23738;DHT22;12049;51.068;3.688;2022-09-29T08:09:11;28.20;99.90
23738;DHT22;12049;51.068;3.688;2022-09-29T08:11:36;28.60;99.90
23738;DHT22;12049;51.068;3.688;2022-09-29T08:14:02;29.10;99.90
23738;DHT22;12049;51.068;3.688;2022-09-29T08:16:28;29.50;99.90
23738;DHT22;12049;51.068;3.688;2022-09-29T08:18:54;29.60;99.90
23738;DHT22;12049;51.068;3.688;2022-09-29T08:21:19;29.80;99.90
23738;DHT22;12049;51.068;3.688;2022-09-29T08:23:45;29.90;99.90
23738;DHT22;12049;51.068;3.688;2022-09-29T08:26:11;29.80;99.90
23738;DHT22;12049;51.068;3.688;2022-09-29T08:28:38;28.70;99.90
23738;DHT22;12049;51.068;3.688;2022-09-29T08:31:08;27.00;99.90
23738;DHT22;12049;51.068;3.688;2022-09-29T08:33:34;25.40;99.90
23738;DHT22;12049;51.068;3.688;2022-09-29T08:36:00;24.00;99.90
23738;DHT22;12049;51.068;3.688;2022-09-29T08:38:27;22.80;99.90
23738;DHT22;12049;51.068;3.688;2022-09-29T08:40:53;21.70;99.90
23738;DHT22;12049;51.068;3.688;2022-09-29T08:45:53;20.50;99.90
23738;DHT22;12049;51.068;3.688;2022-09-29T08:48:22;20.10;99.90
23738;DHT22;12049;51.068;3.688;2022-09-29T08:50:51;19.50;99.90
23738;DHT22;12049;51.068;3.688;2022-09-29T08:53:20;19.10;99.90
23738;DHT22;12049;51.068;3.688;2022-09-29T08:56:00;18.70;99.90
23738;DHT22;12049;51.068;3.688;2022-09-29T08:58:26;18.30;99.90
23738;DHT22;12049;51.068;3.688;2022-09-29T09:18:53;18.30;99.90
23738;DHT22;12049;51.068;3.688;2022-09-29T09:21:27;19.60;99.90
23738;DHT22;12049;51.068;3.688;2022-09-29T09:23:55;21.40;99.90
23738;DHT22;12049;51.068;3.688;2022-09-29T09:26:25;23.20;99.90
23738;DHT22;12049;51.068;3.688;2022-09-29T09:28:54;24.60;99.90
23738;DHT22;12049;51.068;3.688;2022-09-29T09:33:57;26.80;99.90
23738;DHT22;12049;51.068;3.688;2022-09-29T09:41:25;28.50;99.90
23738;DHT22;12049;51.068;3.688;2022-09-29T09:43:53;29.20;99.90
23738;DHT22;12049;51.068;3.688;2022-09-29T09:46:29;29.60;99.90
23738;DHT22;12049;51.068;3.688;2022-09-29T09:49:10;29.80;99.90
23738;DHT22;12049;51.068;3.688;2022-09-29T09:51:55;30.20;99.90
23738;DHT22;12049;51.068;3.688;2022-09-29T09:54:30;30.30;99.90
23738;DHT22;12049;51.068;3.688;2022-09-29T09:57:10;30.50;99.90
23738;DHT22;12049;51.068;3.688;2022-09-29T10:02:19;30.90;99.90
23738;DHT22;12049;51.068;3.688;2022-09-29T10:04:46;31.20;99.90
23738;DHT22;12049;51.068;3.688;2022-09-29T10:07:13;31.50;99.90
23738;DHT22;12049;51.068;3.688;2022-09-29T10:09:38;30.60;99.30
23738;DHT22;12049;51.068;3.688;2022-09-29T10:12:04;29.00;99.80
23738;DHT22;12049;51.068;3.688;2022-09-29T10:14:29;27.60;99.90
23738;DHT22;12049;51.068;3.688;2022-09-29T10:16:59;27.40;99.90
23738;DHT22;12049;51.068;3.688;2022-09-29T10:22:11;26.10;99.90
23738;DHT22;12049;51.068;3.688;2022-09-29T10:24:37;26.20;99.90
23738;DHT22;12049;51.068;3.688;2022-09-29T10:27:02;26.80;99.90
23738;DHT22;12049;51.068;3.688;2022-09-29T10:29:38;27.50;99.90
23738;DHT22;12049;51.068;3.688;2022-09-29T10:32:05;28.20;99.90
23738;DHT22;12049;51.068;3.688;2022-09-29T10:34:39;28.50;99.90
23738;DHT22;12049;51.068;3.688;2022-09-29T10:37:19;29.10;99.90
23738;DHT22;12049;51.068;3.688;2022-09-29T10:39:45;28.80;99.90
23738;DHT22;12049;51.068;3.688;2022-09-29T10:42:22;27.70;99.90
23738;DHT22;12049;51.068;3.688;2022-09-29T10:44:49;26.50;99.90
23738;DHT22;12049;51.068;3.688;2022-09-29T10:47:15;25.30;99.90
23738;DHT22;12049;51.068;3.688;2022-09-29T10:49:41;24.20;99.90
23738;DHT22;12049;51.068;3.688;2022-09-29T10:52:15;23.80;99.90
23738;DHT22;12049;51.068;3.688;2022-09-29T10:54:51;24.30;99.90
23738;DHT22;12049;51.068;3.688;2022-09-29T10:57:19;25.40;99.90
23738;DHT22;12049;51.068;3.688;2022-09-29T10:59:48;26.20;99.90
23738;DHT22;12049;51.068;3.688;2022-09-29T11:02:22;26.90;99.90
23738;DHT22;12049;51.068;3.688;2022-09-29T11:04:49;27.00;99.90
23738;DHT22;12049;51.068;3.688;2022-09-29T11:07:15;26.80;99.90
23738;DHT22;12049;51.068;3.688;2022-09-29T11:09:42;26.00;99.90
23738;DHT22;12049;51.068;3.688;2022-09-29T11:12:23;25.00;99.90
23738;DHT22;12049;51.068;3.688;2022-09-29T11:14:49;24.00;99.90
23738;DHT22;12049;51.068;3.688;2022-09-29T11:19:43;22.00;99.90
23738;DHT22;12049;51.068;3.688;2022-09-29T11:22:16;21.30;99.90
23738;DHT22;12049;51.068;3.688;2022-09-29T11:30:22;19.40;99.90
23738;DHT22;12049;51.068;3.688;2022-09-29T11:49:05;17.50;99.90
23738;DHT22;12049;51.068;3.688;2022-09-29T11:56:45;17.20;99.90
23738;DHT22;12049;51.068;3.688;2022-09-29T12:02:12;17.10;99.90
23738;DHT22;12049;51.068;3.688;2022-09-29T12:04:53;17.10;99.90
23738;DHT22;12049;51.068;3.688;2022-09-29T12:07:31;17.00;99.90
23738;DHT22;12049;51.068;3.688;2022-09-29T12:12:45;17.10;99.90
23738;DHT22;12049;51.068;3.688;2022-09-29T12:15:21;17.20;99.90
23738;DHT22;12049;51.068;3.688;2022-09-29T12:17:51;17.30;99.90
23738;DHT22;12049;51.068;3.688;2022-09-29T12:20:29;17.30;99.90
23738;DHT22;12049;51.068;3.688;2022-09-29T12:22:56;17.40;99.90
23738;DHT22;12049;51.068;3.688;2022-09-29T12:25:26;17.40;99.90
23738;DHT22;12049;51.068;3.688;2022-09-29T12:27:53;17.40;99.90
23738;DHT22;12049;51.068;3.688;2022-09-29T12:30:24;17.50;99.90
23738;DHT22;12049;51.068;3.688;2022-09-29T12:35:41;17.40;99.90
23738;DHT22;12049;51.068;3.688;2022-09-29T12:43:28;17.30;99.90
23738;DHT22;12049;51.068;3.688;2022-09-29T12:45:59;17.40;99.90
23738;DHT22;12049;51.068;3.688;2022-09-29T12:55:51;18.70;99.90
23738;DHT22;12049;51.068;3.688;2022-09-29T12:58:23;19.10;99.90
23738;DHT22;12049;51.068;3.688;2022-09-29T13:00:55;19.50;99.90
23738;DHT22;12049;51.068;3.688;2022-09-29T13:03:28;19.80;99.90
23738;DHT22;12049;51.068;3.688;2022-09-29T13:11:04;20.60;99.90
23738;DHT22;12049;51.068;3.688;2022-09-29T13:18:59;21.00;99.90
23738;DHT22;12049;51.068;3.688;2022-09-29T13:24:21;21.00;99.90
23738;DHT22;12049;51.068;3.688;2022-09-29T13:29:25;20.90;99.90
23738;DHT22;12049;51.068;3.688;2022-09-29T13:31:51;20.90;99.90
23738;DHT22;12049;51.068;3.688;2022-09-29T13:34:29;20.80;99.90
23738;DHT22;12049;51.068;3.688;2022-09-29T13:37:15;20.60;99.90
23738;DHT22;12049;51.068;3.688;2022-09-29T13:39:42;20.20;99.90
23738;DHT22;12049;51.068;3.688;2022-09-29T13:47:36;18.80;99.90
23738;DHT22;12049;51.068;3.688;2022-09-29T13:52:53;18.20;99.90
23738;DHT22;12049;51.068;3.688;2022-09-29T13:58:03;17.70;99.90
23738;DHT22;12049;51.068;3.688;2022-09-29T14:00:28;17.30;99.90
23738;DHT22;12049;51.068;3.688;2022-09-29T14:03:04;17.20;99.90
23738;DHT22;12049;51.068;3.688;2022-09-29T14:12:56;16.80;99.90
23738;DHT22;12049;51.068;3.688;2022-09-29T14:15:23;16.70;99.90
23738;DHT22;12049;51.068;3.688;2022-09-29T14:17:56;16.70;99.90
23738;DHT22;12049;51.068;3.688;2022-09-29T14:20:25;16.70;99.90
23738;DHT22;12049;51.068;3.688;2022-09-29T14:22:54;16.60;99.90
23738;DHT22;12049;51.068;3.688;2022-09-29T14:32:54;16.60;99.90
23738;DHT22;12049;51.068;3.688;2022-09-29T14:37:47;16.50;99.90
23738;DHT22;12049;51.068;3.688;2022-09-29T14:40:18;16.40;99.90
23738;DHT22;12049;51.068;3.688;2022-09-29T14:43:12;16.20;99.90
23738;DHT22;12049;51.068;3.688;2022-09-29T14:48:55;16.00;99.90
23738;DHT22;12049;51.068;3.688;2022-09-29T14:51:47;15.90;99.90
23738;DHT22;12049;51.068;3.688;2022-09-29T15:00:14;16.00;99.90
23738;DHT22;12049;51.068;3.688;2022-09-29T15:02:44;16.00;99.90
23738;DHT22;12049;51.068;3.688;2022-09-29T15:05:14;16.10;99.90
23738;DHT22;12049;51.068;3.688;2022-09-29T15:07:47;16.30;99.90
23738;DHT22;12049;51.068;3.688;2022-09-29T15:10:27;16.30;99.90
23738;DHT22;12049;51.068;3.688;2022-09-29T15:15:38;16.20;99.90
23738;DHT22;12049;51.068;3.688;2022-09-29T15:18:10;16.30;99.90
23738;DHT22;12049;51.068;3.688;2022-09-29T15:25:59;16.30;99.90
23738;DHT22;12049;51.068;3.688;2022-09-29T15:28:37;16.40;99.90
23738;DHT22;12049;51.068;3.688;2022-09-29T15:31:04;16.40;99.90
23738;DHT22;12049;51.068;3.688;2022-09-29T15:33:34;16.50;99.90
23738;DHT22;12049;51.068;3.688;2022-09-29T15:36:04;16.50;99.90
23738;DHT22;12049;51.068;3.688;2022-09-29T15:38:35;16.50;99.90
23738;DHT22;12049;51.068;3.688;2022-09-29T15:41:23;16.60;99.90
23738;DHT22;12049;51.068;3.688;2022-09-29T15:46:14;16.70;99.90
23738;DHT22;12049;51.068;3.688;2022-09-29T15:48:41;16.70;99.90
23738;DHT22;12049;51.068;3.688;2022-09-29T15:51:16;16.70;99.90
23738;DHT22;12049;51.068;3.688;2022-09-29T15:53:41;16.70;99.90
23738;DHT22;12049;51.068;3.688;2022-09-29T15:56:09;16.80;99.90
23738;DHT22;12049;51.068;3.688;2022-09-29T15:58:35;16.80;99.90
23738;DHT22;12049;51.068;3.688;2022-09-29T16:01:01;16.90;99.90
23738;DHT22;12049;51.068;3.688;2022-09-29T16:06:01;16.80;99.90
23738;DHT22;12049;51.068;3.688;2022-09-29T16:08:28;16.80;99.90
23738;DHT22;12049;51.068;3.688;2022-09-29T16:10:56;16.90;99.90
23738;DHT22;12049;51.068;3.688;2022-09-29T16:13:24;16.90;99.90
23738;DHT22;12049;51.068;3.688;2022-09-29T16:15:51;16.90;99.90
23738;DHT22;12049;51.068;3.688;2022-09-29T16:18:20;16.80;99.90
23738;DHT22;12049;51.068;3.688;2022-09-29T16:20:47;16.80;99.90
23738;DHT22;12049;51.068;3.688;2022-09-29T16:25:41;16.70;99.90
23738;DHT22;12049;51.068;3.688;2022-09-29T16:28:08;16.60;99.90
23738;DHT22;12049;51.068;3.688;2022-09-29T16:30:48;16.50;99.90
23738;DHT22;12049;51.068;3.688;2022-09-29T16:33:24;16.60;99.90
23738;DHT22;12049;51.068;3.688;2022-09-29T16:40:44;16.60;99.90
23738;DHT22;12049;51.068;3.688;2022-09-29T16:43:23;16.60;99.90
23738;DHT22;12049;51.068;3.688;2022-09-29T16:45:50;16.60;99.90
23738;DHT22;12049;51.068;3.688;2022-09-29T16:48:16;16.50;99.90
23738;DHT22;12049;51.068;3.688;2022-09-29T16:50:46;16.40;99.90
23738;DHT22;12049;51.068;3.688;2022-09-29T16:53:19;16.40;99.90
23738;DHT22;12049;51.068;3.688;2022-09-29T16:55:54;16.40;99.90
23738;DHT22;12049;51.068;3.688;2022-09-29T16:58:19;16.40;99.90
23738;DHT22;12049;51.068;3.688;2022-09-29T17:00:45;16.30;99.90
23738;DHT22;12049;51.068;3.688;2022-09-29T17:03:11;16.30;99.90
23738;DHT22;12049;51.068;3.688;2022-09-29T17:05:40;16.20;99.90
23738;DHT22;12049;51.068;3.688;2022-09-29T17:08:13;16.10;99.90
23738;DHT22;12049;51.068;3.688;2022-09-29T17:10:39;16.10;99.90
23738;DHT22;12049;51.068;3.688;2022-09-29T17:13:11;16.00;99.90
23738;DHT22;12049;51.068;3.688;2022-09-29T17:15:38;15.90;99.90
23738;DHT22;12049;51.068;3.688;2022-09-29T17:18:04;15.80;99.90
23738;DHT22;12049;51.068;3.688;2022-09-29T17:20:29;15.80;99.90
23738;DHT22;12049;51.068;3.688;2022-09-29T17:22:55;15.70;99.90
23738;DHT22;12049;51.068;3.688;2022-09-29T17:25:20;15.50;99.90
23738;DHT22;12049;51.068;3.688;2022-09-29T17:27:46;15.40;99.90
23738;DHT22;12049;51.068;3.688;2022-09-29T17:30:30;15.30;99.90
23738;DHT22;12049;51.068;3.688;2022-09-29T17:32:56;15.20;99.90
23738;DHT22;12049;51.068;3.688;2022-09-29T17:35:26;15.20;99.90
23738;DHT22;12049;51.068;3.688;2022-09-29T17:37:52;15.10;99.90
23738;DHT22;12049;51.068;3.688;2022-09-29T17:43:03;15.00;99.90
23738;DHT22;12049;51.068;3.688;2022-09-29T17:45:29;14.90;99.90
23738;DHT22;12049;51.068;3.688;2022-09-29T17:47:55;14.80;99.90
23738;DHT22;12049;51.068;3.688;2022-09-29T17:50:27;14.80;99.90
23738;DHT22;12049;51.068;3.688;2022-09-29T17:52:54;14.70;99.90
23738;DHT22;12049;51.068;3.688;2022-09-29T17:55:20;14.60;99.90
23738;DHT22;12049;51.068;3.688;2022-09-29T17:57:47;14.60;99.90
23738;DHT22;12049;51.068;3.688;2022-09-29T18:00:15;14.50;99.90
23738;DHT22;12049;51.068;3.688;2022-09-29T18:02:42;14.50;99.90
23738;DHT22;12049;51.068;3.688;2022-09-29T18:05:07;14.40;99.90
23738;DHT22;12049;51.068;3.688;2022-09-29T18:07:35;14.40;99.90
23738;DHT22;12049;51.068;3.688;2022-09-29T18:10:00;14.40;99.90
23738;DHT22;12049;51.068;3.688;2022-09-29T18:12:26;14.30;99.90
23738;DHT22;12049;51.068;3.688;2022-09-29T18:14:51;14.20;99.90
23738;DHT22;12049;51.068;3.688;2022-09-29T18:17:17;14.20;99.90
23738;DHT22;12049;51.068;3.688;2022-09-29T18:19:42;14.20;99.90
23738;DHT22;12049;51.068;3.688;2022-09-29T18:22:09;14.10;99.90
23738;DHT22;12049;51.068;3.688;2022-09-29T18:24:34;14.10;99.90
23738;DHT22;12049;51.068;3.688;2022-09-29T18:27:00;14.00;99.90
23738;DHT22;12049;51.068;3.688;2022-09-29T18:29:26;13.90;99.90
23738;DHT22;12049;51.068;3.688;2022-09-29T18:31:51;13.80;99.90
23738;DHT22;12049;51.068;3.688;2022-09-29T18:34:18;13.80;99.90
23738;DHT22;12049;51.068;3.688;2022-09-29T18:36:44;13.80;99.90
23738;DHT22;12049;51.068;3.688;2022-09-29T18:39:10;13.70;99.90
23738;DHT22;12049;51.068;3.688;2022-09-29T18:41:35;13.70;99.90
23738;DHT22;12049;51.068;3.688;2022-09-29T18:44:06;13.60;99.90
23738;DHT22;12049;51.068;3.688;2022-09-29T18:46:34;13.60;99.90